Terminal Aerodrome Forecast
Issued by NWS

Home | Current Version | Previous Version | Graphics & Text | Print | Product List | Glossary On
Versions: 1 2 3 4 5 6 7 8 9 10 11 12 13 14 15 16 17 18 19
367
FTUS43 KLSX 092034 AAA
TAFSUS
TAF AMD
KSUS 092034Z 0921/1018 31016G24KT P6SM VCSH OVC035
     FM092200 30016G24KT P6SM BKN035
     FM100600 31011KT P6SM SCT200=

USA.gov is the U.S. government's official web portal to all federal, state and local government web resources and services.